Time;durP1;ratioP1;P1;durP2;ratioP2;P2;SDS_P1;SDS_P2;PMS_P1;PMS_P2;Temp;Humidity;BMP_temperature;BMP_pressure;BME280_temperature;BME280_humidity;BME280_pressure;Samples;Min_cycle;Max_cycle;Signal;HPM_P1;HPM_P2
2022/12/22 03:26:18;;;;;;;30.30;8.98;;;;;;;5.63;100.00;97622.25;5127893;27;20035;-82
2022/12/22 03:28:44;;;;;;;30.17;9.05;;;;;;;5.90;100.00;97623.09;5080852;28;20047;-84
2022/12/22 03:31:10;;;;;;;30.60;9.10;;;;;;;5.86;100.00;97635.69;5103571;27;20043;-83
2022/12/22 03:33:36;;;;;;;27.58;9.40;;;;;;;5.82;100.00;97621.47;5099959;27;20042;-84
2022/12/22 03:36:01;;;;;;;33.65;9.07;;;;;;;5.71;100.00;97601.25;5107803;27;20035;-83
2022/12/22 03:38:27;;;;;;;32.05;9.18;;;;;;;5.71;100.00;97606.47;5106225;27;20031;-84
2022/12/22 03:40:54;;;;;;;41.03;11.32;;;;;;;5.80;100.00;97597.44;5118011;27;20024;-86
2022/12/22 03:49:08;;;;;;;35.55;9.63;;;;;;;5.94;100.00;97618.28;5123468;27;20425;-86
2022/12/22 03:51:34;;;;;;;31.95;11.30;;;;;;;6.05;100.00;97632.56;5097382;27;20048;-84
2022/12/22 03:53:59;;;;;;;36.55;9.45;;;;;;;5.74;100.00;97593.03;5104158;28;20422;-85
2022/12/22 03:56:26;;;;;;;34.95;10.45;;;;;;;5.80;100.00;97609.69;5100196;27;20031;-84
2022/12/22 03:58:51;;;;;;;34.20;10.60;;;;;;;5.71;100.00;97589.03;5088526;28;20070;-84
2022/12/22 04:01:17;;;;;;;31.10;10.73;;;;;;;5.95;100.00;97628.50;5104133;27;20480;-85
2022/12/22 04:03:42;;;;;;;33.17;9.68;;;;;;;5.81;100.00;97614.66;5125885;27;20039;-84
2022/12/22 04:06:08;;;;;;;29.77;10.15;;;;;;;5.65;100.00;97578.59;5103745;28;20035;-85
2022/12/22 04:08:34;;;;;;;25.13;9.75;;;;;;;5.54;100.00;97562.56;5123642;27;20566;-83
2022/12/22 04:13:43;;;;;;;37.33;9.43;;;;;;;5.55;100.00;97569.38;5120711;27;20039;-85
2022/12/22 04:16:09;;;;;;;26.58;8.15;;;;;;;5.81;100.00;97591.22;5085097;27;20084;-84
2022/12/22 04:18:34;;;;;;;21.65;8.45;;;;;;;5.73;100.00;97570.59;5105212;27;20032;-83
2022/12/22 04:21:00;;;;;;;23.10;7.30;;;;;;;6.04;100.00;97610.13;5108841;28;20022;-85
2022/12/22 04:23:25;;;;;;;29.40;9.10;;;;;;;5.96;100.00;97611.09;5105131;28;20057;-84
2022/12/22 04:25:51;;;;;;;29.65;7.68;;;;;;;5.91;100.00;97590.84;5098404;27;20407;-83
2022/12/22 04:28:18;;;;;;;31.75;7.60;;;;;;;6.14;100.00;97613.91;5121155;28;20023;-85
2022/12/22 04:30:44;;;;;;;30.40;8.05;;;;;;;6.20;100.00;97627.13;5098652;28;20092;-82
2022/12/22 04:33:10;;;;;;;30.25;7.63;;;;;;;6.03;100.00;97601.47;5126162;28;20028;-82
2022/12/22 04:35:35;;;;;;;29.40;7.15;;;;;;;6.11;100.00;97627.34;5126019;28;20034;-85
2022/12/22 04:38:01;;;;;;;24.00;6.60;;;;;;;6.12;100.00;97625.53;5085523;28;20441;-85
2022/12/22 04:40:27;;;;;;;28.02;6.85;;;;;;;6.15;100.00;97619.91;5101824;28;20063;-84
2022/12/22 04:42:53;;;;;;;34.58;7.30;;;;;;;6.25;100.00;97624.72;5127088;28;20385;-83
2022/12/22 04:45:18;;;;;;;31.73;7.90;;;;;;;6.08;100.00;97619.13;5111629;28;20039;-84
2022/12/22 04:47:44;;;;;;;21.33;6.47;;;;;;;6.21;100.00;97618.31;5123298;28;20512;-83
2022/12/22 04:50:10;;;;;;;23.88;6.72;;;;;;;6.19;100.00;97609.91;5119558;28;20564;-81
2022/12/22 04:52:35;;;;;;;24.60;7.05;;;;;;;6.18;100.00;97616.91;5126789;28;20020;-82
2022/12/22 04:55:01;;;;;;;30.63;7.20;;;;;;;6.29;100.00;97623.34;5127066;28;20422;-82
2022/12/22 04:57:27;;;;;;;29.02;8.70;;;;;;;5.98;100.00;97632.50;5086877;28;20023;-82
2022/12/22 04:59:52;;;;;;;42.20;9.50;;;;;;;6.24;100.00;97638.75;5118229;28;20039;-83
2022/12/22 05:02:18;;;;;;;29.35;8.80;;;;;;;6.03;100.00;97614.50;5104414;28;20080;-81
2022/12/22 05:04:43;;;;;;;33.40;9.52;;;;;;;6.45;100.00;97636.94;5125263;28;20035;-81
2022/12/22 05:07:09;;;;;;;44.20;12.20;;;;;;;6.28;100.00;97635.56;5119423;28;20396;-82
2022/12/22 05:09:34;;;;;;;35.85;12.68;;;;;;;6.45;100.00;97629.13;5118636;28;20042;-82
2022/12/22 05:12:53;;;;;;;38.50;12.85;;;;;;;6.31;100.00;97608.31;5126942;28;20036;-83
2022/12/22 05:14:45;;;;;;;31.50;14.15;;;;;;;6.51;100.00;97603.03;5101814;28;20039;-84
2022/12/22 05:17:11;;;;;;;39.30;15.05;;;;;;;6.53;100.00;97615.88;5103834;27;20080;-81
2022/12/22 05:19:37;;;;;;;51.63;17.38;;;;;;;6.74;100.00;97607.00;5109448;27;20031;-81
2022/12/22 05:22:03;;;;;;;45.78;17.83;;;;;;;6.69;100.00;97594.59;5090205;27;20039;-82
2022/12/22 05:24:29;;;;;;;49.85;18.13;;;;;;;6.40;100.00;97554.94;5124836;27;20026;-80
2022/12/22 05:26:54;;;;;;;37.47;15.68;;;;;;;6.37;100.00;97568.38;5090595;27;20039;-82
2022/12/22 05:29:20;;;;;;;37.03;13.90;;;;;;;6.43;100.00;97582.41;5092012;27;20068;-84
2022/12/22 05:31:45;;;;;;;29.20;13.90;;;;;;;6.47;100.00;97598.44;5090767;27;20040;-84
2022/12/22 05:34:11;;;;;;;33.13;14.95;;;;;;;6.22;100.00;97602.50;5096919;27;20023;-83
2022/12/22 05:36:37;;;;;;;43.25;14.63;;;;;;;6.35;100.00;97613.88;5106785;27;20028;-84
2022/12/22 05:39:03;;;;;;;34.35;14.38;;;;;;;6.08;100.00;97608.72;5121685;27;20042;-83
2022/12/22 05:41:29;;;;;;;32.60;12.85;;;;;;;6.04;100.00;97621.31;5092563;27;20039;-82
2022/12/22 05:43:54;;;;;;;35.83;13.63;;;;;;;5.77;100.00;97607.44;5125936;27;20060;-83
2022/12/22 05:46:22;;;;;;;32.63;13.05;;;;;;;6.02;100.00;97612.91;5088090;27;20038;-82
2022/12/22 05:48:48;;;;;;;36.30;13.32;;;;;;;6.14;100.00;97632.16;5104831;27;20042;-83
2022/12/22 05:51:14;;;;;;;27.42;12.55;;;;;;;6.21;100.00;97629.56;5122843;27;20113;-84
2022/12/22 05:53:39;;;;;;;28.40;11.75;;;;;;;6.09;100.00;97625.94;5127505;27;20034;-83
2022/12/22 05:56:05;;;;;;;34.10;11.65;;;;;;;6.20;100.00;97637.56;5124931;27;20027;-85
2022/12/22 05:58:31;;;;;;;36.72;12.02;;;;;;;6.07;100.00;97622.72;5108792;27;20060;-86
2022/12/22 06:00:59;;;;;;;26.23;11.88;;;;;;;6.34;100.00;97638.34;5110431;27;20019;-84
2022/12/22 06:03:26;;;;;;;30.27;11.95;;;;;;;6.28;100.00;97639.94;5106187;27;20122;-84
2022/12/22 06:05:53;;;;;;;31.85;12.30;;;;;;;6.16;100.00;97638.97;5128377;27;20035;-83
2022/12/22 06:08:19;;;;;;;44.30;14.10;;;;;;;6.19;100.00;97625.53;5121933;27;20028;-85
2022/12/22 06:10:45;;;;;;;36.40;12.55;;;;;;;6.33;100.00;97632.34;5128630;27;20031;-84
2022/12/22 06:13:10;;;;;;;30.05;12.93;;;;;;;6.22;100.00;97625.13;5107815;27;20096;-84
2022/12/22 06:15:36;;;;;;;33.47;13.60;;;;;;;6.37;100.00;97632.72;5106845;27;20050;-83
2022/12/22 06:18:01;;;;;;;34.83;12.82;;;;;;;6.39;100.00;97635.97;5113233;27;20412;-84
2022/12/22 06:20:27;;;;;;;33.40;12.95;;;;;;;6.40;100.00;97648.78;5127949;27;20023;-84
2022/12/22 06:22:53;;;;;;;35.08;12.60;;;;;;;6.49;100.00;97635.56;5106260;28;20046;-86
2022/12/22 06:25:18;;;;;;;31.67;12.57;;;;;;;6.45;100.00;97624.72;5120735;27;20058;-87
2022/12/22 06:27:46;;;;;;;24.85;11.55;;;;;;;6.69;100.00;97646.75;5129570;27;20051;-85
2022/12/22 06:30:12;;;;;;;34.88;12.43;;;;;;;6.34;100.00;97601.88;5105371;28;20047;-85
2022/12/22 06:32:38;;;;;;;29.65;12.57;;;;;;;6.56;100.00;97621.47;5100691;28;20027;-89
2022/12/22 06:35:08;;;;;;;30.60;12.55;;;;;;;6.64;100.00;97630.09;5087353;28;20051;-86
2022/12/22 06:37:34;;;;;;;28.55;13.98;;;;;;;6.72;100.00;97627.25;5097608;28;20035;-87
2022/12/22 06:40:01;;;;;;;30.70;14.60;;;;;;;6.57;100.00;97619.69;5104244;28;20020;-85
2022/12/22 06:43:09;;;;;;;29.52;11.98;;;;;;;6.78;100.00;97630.88;5102674;28;20142;-84
2022/12/22 06:45:16;;;;;;;29.98;11.38;;;;;;;7.05;100.00;97649.03;5100317;28;20048;-85
2022/12/22 06:47:42;;;;;;;29.20;12.27;;;;;;;7.17;100.00;97660.44;5105257;28;20447;-85
2022/12/22 06:50:08;;;;;;;24.80;12.27;;;;;;;7.09;100.00;97645.03;5105474;28;20114;-86
2022/12/22 06:52:34;;;;;;;25.13;11.55;;;;;;;7.18;100.00;97643.78;5117677;28;20032;-86
2022/12/22 06:55:01;;;;;;;24.67;12.13;;;;;;;7.23;100.00;97654.41;5110551;28;20114;-84
2022/12/22 06:57:27;;;;;;;25.02;11.80;;;;;;;7.32;100.00;97659.41;5084271;28;20062;-87
2022/12/22 06:59:52;;;;;;;27.98;12.63;;;;;;;7.42;100.00;97654.53;5105712;28;20393;-87
2022/12/22 07:02:18;;;;;;;34.60;16.13;;;;;;;7.41;100.00;97632.03;5105392;28;20028;-85
2022/12/22 07:04:44;;;;;;;34.53;13.75;;;;;;;7.52;100.00;97654.88;5101127;28;20080;-86
2022/12/22 07:07:10;;;;;;;38.30;14.70;;;;;;;7.40;100.00;97636.47;5101446;28;20024;-87
2022/12/22 07:09:36;;;;;;;32.20;13.80;;;;;;;7.38;100.00;97637.69;5103074;28;20028;-85
2022/12/22 07:12:03;;;;;;;38.00;16.45;;;;;;;7.37;100.00;97626.44;5103114;28;20036;-86
2022/12/22 07:14:28;;;;;;;46.30;21.50;;;;;;;7.31;100.00;97610.81;5104966;27;20031;-89
2022/12/22 07:16:54;;;;;;;25.92;12.77;;;;;;;7.12;100.00;97623.75;5100134;28;20028;-90
2022/12/22 07:19:20;;;;;;;35.38;14.27;;;;;;;6.99;100.00;97620.16;5102424;28;20432;-86
2022/12/22 07:21:50;;;;;;;34.40;12.35;;;;;;;6.75;100.00;97611.22;5105411;28;20481;-88
2022/12/22 07:24:21;;;;;;;25.83;12.13;;;;;;;7.06;100.00;97624.56;5109603;28;20477;-88
2022/12/22 07:26:47;;;;;;;23.55;10.57;;;;;;;7.36;100.00;97635.25;5109933;28;20096;-87
2022/12/22 07:29:14;;;;;;;28.30;11.70;;;;;;;7.10;100.00;97616.13;5101343;28;20031;-85
2022/12/22 07:31:40;;;;;;;23.13;11.57;;;;;;;7.30;100.00;97636.09;5120571;27;20115;-86
2022/12/22 07:34:05;;;;;;;23.15;11.38;;;;;;;7.24;100.00;97623.91;5110553;27;20030;-84
2022/12/22 07:36:31;;;;;;;29.25;12.50;;;;;;;7.35;100.00;97638.09;5126215;27;20039;-85
2022/12/22 07:38:56;;;;;;;32.10;11.65;;;;;;;7.41;100.00;97640.69;5117121;27;20031;-85
2022/12/22 07:44:06;;;;;;;27.52;13.10;;;;;;;7.50;100.00;97646.47;5104471;27;20036;-85
2022/12/22 07:46:36;;;;;;;32.17;13.00;;;;;;;7.55;100.00;97651.84;5125288;27;20033;-86
2022/12/22 07:51:47;;;;;;;32.33;14.63;;;;;;;7.33;100.00;97650.56;5117719;27;20382;-85
2022/12/22 07:54:14;;;;;;;30.30;14.80;;;;;;;7.43;100.00;97630.00;5119958;27;20080;-86
2022/12/22 07:56:40;;;;;;;32.08;14.10;;;;;;;7.73;100.00;97650.34;5127911;27;20368;-84
2022/12/22 07:59:06;;;;;;;24.63;13.30;;;;;;;7.79;100.00;97649.50;5128750;27;20106;-87
2022/12/22 08:01:32;;;;;;;25.00;13.43;;;;;;;7.81;100.00;97637.03;5126552;27;20039;-88
2022/12/22 08:03:58;;;;;;;25.92;12.73;;;;;;;7.97;100.00;97651.41;5120103;27;20472;-89
2022/12/22 08:06:25;;;;;;;29.73;12.63;;;;;;;7.96;100.00;97655.03;5110620;28;20034;-87
2022/12/22 08:08:51;;;;;;;19.17;10.18;;;;;;;8.00;100.00;97637.91;5108952;27;20039;-89
2022/12/22 08:11:18;;;;;;;23.40;11.00;;;;;;;8.14;100.00;97656.91;5120925;27;20028;-87
2022/12/22 08:13:45;;;;;;;23.80;10.50;;;;;;;8.29;100.00;97671.47;5088355;28;20035;-85
2022/12/22 08:16:12;;;;;;;22.20;11.10;;;;;;;8.19;100.00;97668.53;5124225;27;20110;-88
2022/12/22 08:18:40;;;;;;;21.20;10.52;;;;;;;8.14;100.00;97662.13;5118522;27;20044;-88
2022/12/22 08:21:07;;;;;;;20.77;10.10;;;;;;;8.17;100.00;97652.25;5100280;28;20031;-88
2022/12/22 08:23:33;;;;;;;16.15;8.82;;;;;;;8.26;100.00;97653.63;5105094;28;20028;-89
2022/12/22 08:26:14;;;;;;;16.63;9.55;;;;;;;8.29;100.00;97653.19;5103884;28;20093;-88
2022/12/22 08:28:48;;;;;;;21.15;9.95;;;;;;;8.43;100.00;97654.66;5121955;27;20038;-90
2022/12/22 08:31:15;;;;;;;15.50;9.48;;;;;;;8.43;100.00;97643.41;5128377;28;21876;-89
2022/12/22 08:33:40;;;;;;;19.10;9.75;;;;;;;8.37;100.00;97639.03;5129928;28;20041;-88
2022/12/22 08:36:08;;;;;;;15.43;8.90;;;;;;;8.36;100.00;97643.47;5128511;28;20031;-89
2022/12/22 08:38:37;;;;;;;18.05;9.52;;;;;;;8.24;100.00;97643.34;5112468;28;20042;-89
2022/12/22 08:41:03;;;;;;;15.75;9.35;;;;;;;8.42;100.00;97647.81;5105238;28;20027;-87
2022/12/22 08:43:31;;;;;;;16.48;9.20;;;;;;;8.33;100.00;97632.63;5121683;28;20019;-87
2022/12/22 08:45:57;;;;;;;16.33;8.93;;;;;;;7.99;100.00;97622.44;5107449;28;20068;-86
2022/12/22 08:48:23;;;;;;;18.95;9.65;;;;;;;8.35;100.00;97654.94;5109508;28;20398;-88
2022/12/22 08:50:48;;;;;;;17.05;8.40;;;;;;;8.08;100.00;97641.28;5091320;28;20391;-88
2022/12/22 08:53:14;;;;;;;15.95;7.90;;;;;;;7.93;100.00;97636.38;5136058;27;20494;-84
2022/12/22 08:55:40;;;;;;;15.13;8.55;;;;;;;7.78;100.00;97603.50;5141009;27;20035;-85
2022/12/22 08:58:06;;;;;;;14.05;8.50;;;;;;;8.22;100.00;97621.06;5131554;27;20400;-87
2022/12/22 09:00:31;;;;;;;18.88;8.40;;;;;;;8.76;100.00;97646.75;5118820;28;20030;-85
2022/12/22 09:02:57;;;;;;;16.08;7.80;;;;;;;8.10;100.00;97628.78;5100878;28;20039;-84
2022/12/22 09:05:23;;;;;;;18.65;8.27;;;;;;;8.44;100.00;97630.09;5119973;27;20030;-84
2022/12/22 09:07:49;;;;;;;14.75;8.48;;;;;;;8.38;100.00;97640.63;5096846;28;20039;-87
2022/12/22 09:10:15;;;;;;;12.63;7.88;;;;;;;8.32;100.00;97633.63;5131523;27;20480;-85
2022/12/22 09:12:41;;;;;;;13.38;8.18;;;;;;;8.48;100.00;97627.88;5135524;27;20056;-87
2022/12/22 09:15:10;;;;;;;17.23;8.70;;;;;;;8.24;100.00;97650.38;5092320;27;20036;-84
2022/12/22 09:17:36;;;;;;;16.10;9.90;;;;;;;8.54;100.00;97645.31;5114211;27;20061;-86
2022/12/22 09:20:03;;;;;;;18.02;9.23;;;;;;;8.74;100.00;97633.88;5091671;27;20127;-86
2022/12/22 09:22:29;;;;;;;17.70;9.43;;;;;;;8.59;100.00;97634.22;5124577;27;20051;-85
2022/12/22 09:24:55;;;;;;;17.92;9.23;;;;;;;8.73;100.00;97631.50;5109994;28;20035;-84
2022/12/22 09:27:21;;;;;;;14.88;8.60;;;;;;;8.78;100.00;97642.91;5121624;27;20066;-86
2022/12/22 09:29:46;;;;;;;18.65;9.23;;;;;;;9.05;100.00;97647.84;5107540;27;20134;-84
2022/12/22 09:32:12;;;;;;;14.15;8.35;;;;;;;9.08;100.00;97633.53;5093368;27;20028;-84
2022/12/22 09:34:37;;;;;;;16.20;9.40;;;;;;;9.17;100.00;97642.66;5125667;27;20061;-84
2022/12/22 09:37:05;;;;;;;17.08;9.27;;;;;;;9.03;100.00;97641.22;5125406;27;20051;-83
2022/12/22 09:39:31;;;;;;;20.90;9.63;;;;;;;9.19;100.00;97648.47;5123296;27;20036;-82
2022/12/22 09:41:59;;;;;;;16.55;8.88;;;;;;;9.31;100.00;97655.59;5108337;27;20028;-82
2022/12/22 09:44:36;;;;;;;16.33;8.50;;;;;;;9.12;100.00;97638.09;5132222;27;20030;-80
2022/12/22 09:47:12;;;;;;;17.70;9.15;;;;;;;9.39;100.00;97642.19;5124639;27;20051;-82
2022/12/22 09:49:37;;;;;;;17.77;9.70;;;;;;;9.23;100.00;97636.53;5086147;28;20500;-83
2022/12/22 09:52:03;;;;;;;18.05;9.98;;;;;;;9.38;100.00;97637.97;5128550;27;20027;-82
2022/12/22 09:54:29;;;;;;;19.80;9.77;;;;;;;9.32;100.00;97649.34;5128898;27;20023;-82
2022/12/22 09:56:56;;;;;;;18.70;10.05;;;;;;;9.35;100.00;97649.72;5131685;27;20389;-81
2022/12/22 09:59:26;;;;;;;15.18;9.13;;;;;;;9.47;100.00;97644.53;5129139;27;20031;-85
2022/12/22 10:02:11;;;;;;;17.33;9.75;;;;;;;9.39;100.00;97644.81;5109379;27;20031;-90
2022/12/22 10:05:09;;;;;;;17.80;9.90;;;;;;;9.46;100.00;97631.63;5093113;27;20115;-87
2022/12/22 10:07:41;;;;;;;17.23;9.00;;;;;;;9.65;100.00;97632.41;5107604;27;20047;-89
2022/12/22 10:10:27;;;;;;;15.70;9.57;;;;;;;9.97;100.00;97642.63;5092580;27;20393;-88
2022/12/22 10:12:55;;;;;;;15.73;8.48;;;;;;;10.11;100.00;97643.19;5106589;27;20041;-87
2022/12/22 10:15:22;;;;;;;15.77;8.20;;;;;;;10.18;100.00;97637.84;5094081;27;20027;-89
2022/12/22 10:17:53;;;;;;;15.32;8.45;;;;;;;10.34;100.00;97639.81;5112257;27;20118;-86
2022/12/22 10:20:25;;;;;;;15.05;8.80;;;;;;;10.46;100.00;97644.31;5102449;27;20102;-87
2022/12/22 10:23:05;;;;;;;16.20;8.57;;;;;;;10.54;100.00;97639.53;5129332;27;20039;-86
2022/12/22 10:25:43;;;;;;;19.48;10.20;;;;;;;10.50;100.00;97637.56;5095329;27;20430;-88
2022/12/22 10:28:18;;;;;;;19.80;11.50;;;;;;;10.55;100.00;97635.06;5093155;27;20035;-87
2022/12/22 10:30:44;;;;;;;21.52;12.38;;;;;;;10.17;100.00;97602.19;5095674;27;20477;-87
2022/12/22 10:33:17;;;;;;;18.55;11.75;;;;;;;10.34;100.00;97616.22;5097870;27;20076;-86
2022/12/22 10:35:49;;;;;;;;;;;;;;;10.48;100.00;97634.38;5120484;27;20028;-84
2022/12/22 10:38:26;;;;;;;22.15;12.43;;;;;;;10.22;100.00;97620.66;5127095;27;19918;-86
2022/12/22 10:41:01;;;;;;;23.23;12.60;;;;;;;10.22;100.00;97631.94;5091091;27;20097;-88
2022/12/22 10:43:47;;;;;;;21.73;12.60;;;;;;;10.03;100.00;97607.66;5137760;27;20031;-89
2022/12/22 10:46:12;;;;;;;22.80;12.50;;;;;;;9.94;100.00;97614.25;5093495;27;20035;-86
2022/12/22 10:48:41;;;;;;;25.25;15.60;;;;;;;10.02;100.00;97616.50;5112272;27;20035;-89
2022/12/22 10:51:10;;;;;;;21.98;13.98;;;;;;;9.99;100.00;97598.63;5098145;27;20053;-87
2022/12/22 10:53:39;;;;;;;19.67;13.75;;;;;;;10.35;100.00;97635.38;5096070;27;20110;-87
2022/12/22 10:56:07;;;;;;;27.30;14.63;;;;;;;10.24;100.00;97629.88;5132750;27;20094;-82
2022/12/22 10:59:04;;;;;;;22.77;14.00;;;;;;;10.37;100.00;97623.63;5105689;27;20024;-84
2022/12/22 11:01:34;;;;;;;24.23;14.07;;;;;;;10.36;100.00;97632.50;5127620;27;20019;-84
2022/12/22 11:04:22;;;;;;;27.80;18.27;;;;;;;10.45;100.00;97629.59;5104805;27;20172;-82
2022/12/22 11:06:48;;;;;;;20.45;13.95;;;;;;;10.32;100.00;97605.16;5109001;27;20023;-83
2022/12/22 11:09:14;;;;;;;25.98;15.23;;;;;;;10.42;100.00;97620.34;5118909;27;20594;-84
2022/12/22 11:11:58;;;;;;;24.92;17.02;;;;;;;10.60;100.00;97629.91;5122819;27;20380;-83
2022/12/22 11:14:27;;;;;;;25.35;14.85;;;;;;;10.58;100.00;97639.84;5103050;28;20114;-82
2022/12/22 11:17:15;;;;;;;27.90;16.65;;;;;;;10.58;100.00;97639.84;5111618;27;20150;-83
2022/12/22 11:20:02;;;;;;;34.85;18.25;;;;;;;10.55;100.00;97633.25;5124522;27;20027;-82
2022/12/22 11:22:40;;;;;;;36.78;20.52;;;;;;;10.59;100.00;97633.56;5097473;28;20035;-83
2022/12/22 11:25:17;;;;;;;41.60;20.38;;;;;;;10.68;100.00;97634.84;5128948;27;20433;-82
2022/12/22 11:27:43;;;;;;;42.70;23.38;;;;;;;10.60;100.00;97624.66;5109268;27;20464;-82
2022/12/22 11:30:17;;;;;;;44.00;21.90;;;;;;;10.76;100.00;97625.00;5105989;27;20036;-83
2022/12/22 11:33:01;;;;;;;41.53;21.48;;;;;;;10.86;100.00;97612.88;5112275;27;20434;-83
2022/12/22 11:35:45;;;;;;;37.83;18.63;;;;;;;11.20;100.00;97607.00;5114870;27;20376;-83
2022/12/22 11:38:19;;;;;;;33.47;19.23;;;;;;;11.22;100.00;97606.75;5120120;27;20057;-83
2022/12/22 11:40:50;;;;;;;37.10;18.45;;;;;;;11.34;100.00;97597.00;5089451;27;20391;-83
2022/12/22 11:43:38;;;;;;;32.70;17.77;;;;;;;11.52;100.00;97601.25;5121707;27;20039;-84
2022/12/22 11:46:12;;;;;;;32.90;17.98;;;;;;;11.53;100.00;97592.31;5130709;27;20031;-90
2022/12/22 11:48:57;;;;;;;42.22;22.40;;;;;;;11.72;100.00;97586.88;5096819;27;20023;-89
2022/12/22 11:51:41;;;;;;;39.50;20.33;;;;;;;11.67;100.00;97578.91;5107569;27;20092;-88
2022/12/22 11:54:47;;;;;;;38.60;20.92;;;;;;;11.13;100.00;97577.44;5105582;27;20059;-88
2022/12/22 11:57:40;;;;;;;33.33;17.85;;;;;;;11.05;100.00;97583.06;5106348;27;20098;-85
2022/12/22 12:00:13;;;;;;;34.25;17.88;;;;;;;10.86;100.00;97589.25;5126290;27;20031;-86
2022/12/22 12:03:03;;;;;;;32.25;17.88;;;;;;;10.89;100.00;97577.50;5107525;27;20167;-81
2022/12/22 12:05:59;;;;;;;28.85;16.92;;;;;;;10.89;100.00;97574.06;5101447;27;20019;-83
2022/12/22 12:08:31;;;;;;;35.13;19.15;;;;;;;10.73;100.00;97575.59;5103402;27;20362;-83
2022/12/22 12:11:21;;;;;;;37.92;19.25;;;;;;;10.73;100.00;97559.84;5125208;27;20023;-86
2022/12/22 12:14:06;;;;;;;36.08;19.38;;;;;;;10.85;100.00;97563.25;5136227;27;20062;-86
2022/12/22 12:17:11;;;;;;;39.63;21.30;;;;;;;10.99;100.00;97548.81;5103497;27;20023;-85
2022/12/22 12:20:06;;;;;;;33.42;19.17;;;;;;;11.20;100.00;97566.78;5101811;28;20031;-90
2022/12/22 12:23:02;;;;;;;36.13;19.10;;;;;;;11.13;100.00;97557.22;5102608;28;20027;-88
2022/12/22 12:25:40;;;;;;;34.88;19.75;;;;;;;11.16;100.00;97553.31;5086225;28;20080;-88
2022/12/22 12:28:21;;;;;;;44.65;23.45;;;;;;;11.22;100.00;97557.66;5084927;28;20507;-90
2022/12/22 12:30:58;;;;;;;42.05;22.40;;;;;;;11.24;100.00;97560.84;5112399;28;20393;-88
2022/12/22 12:33:30;;;;;;;32.22;19.52;;;;;;;11.10;100.00;97559.50;5099638;28;20080;-87
2022/12/22 12:36:00;;;;;;;33.28;20.67;;;;;;;10.93;100.00;97556.84;5095388;28;20035;-84
2022/12/22 12:38:32;;;;;;;34.17;21.02;;;;;;;10.81;100.00;97551.63;5106152;28;20027;-84
2022/12/22 12:41:03;;;;;;;28.48;17.98;;;;;;;10.49;100.00;97523.97;5103252;28;20028;-85
2022/12/22 12:43:28;;;;;;;59.80;21.20;;;;;;;10.34;100.00;97529.66;5086503;28;20080;-87
2022/12/22 12:45:54;;;;;;;28.60;17.50;;;;;;;10.35;100.00;97519.97;5098791;28;20409;-86
2022/12/22 12:48:19;;;;;;;36.13;19.00;;;;;;;10.59;100.00;97543.56;5102580;28;20030;-87
2022/12/22 12:50:50;;;;;;;28.33;16.90;;;;;;;10.61;100.00;97539.69;5119730;28;20028;-85
2022/12/22 12:53:17;;;;;;;28.58;16.42;;;;;;;10.70;100.00;97538.28;5122903;28;20031;-82
2022/12/22 12:55:43;;;;;;;30.70;17.38;;;;;;;10.74;100.00;97538.63;5106392;28;20114;-82
2022/12/22 12:58:10;;;;;;;31.95;17.13;;;;;;;10.75;100.00;97526.31;5101769;28;20055;-81
2022/12/22 13:00:36;;;;;;;31.13;17.73;;;;;;;10.80;100.00;97542.94;5086351;28;20035;-82
2022/12/22 13:03:03;;;;;;;37.83;21.00;;;;;;;10.89;100.00;97540.75;5101535;28;20023;-82
2022/12/22 13:05:35;;;;;;;43.30;22.35;;;;;;;10.99;100.00;97550.66;5100125;28;20380;-81
2022/12/22 13:08:59;;;;;;;37.72;21.15;;;;;;;11.04;100.00;97544.72;5098883;28;20068;-83
2022/12/22 13:11:36;;;;;;;35.55;19.50;;;;;;;11.06;100.00;97546.06;5036138;28;20045;-82
2022/12/22 13:14:02;;;;;;;45.13;22.98;;;;;;;10.89;100.00;97540.75;5102758;28;20134;-82
2022/12/22 13:16:31;;;;;;;42.05;21.83;;;;;;;10.80;100.00;97521.13;5118816;28;20038;-85
2022/12/22 13:18:58;;;;;;;42.88;21.10;;;;;;;10.69;100.00;97502.59;5106393;28;20118;-85
2022/12/22 13:21:28;;;;;;;35.30;19.98;;;;;;;10.93;100.00;97522.72;5099645;28;20020;-86
2022/12/22 13:23:53;;;;;;;37.45;19.40;;;;;;;10.95;100.00;97541.66;5115160;28;20044;-85
2022/12/22 13:26:30;;;;;;;34.60;18.55;;;;;;;11.05;100.00;97527.91;5107433;28;20531;-85
2022/12/22 13:29:17;;;;;;;30.65;17.48;;;;;;;11.08;100.00;97537.94;5126617;28;20035;-86
2022/12/22 13:31:51;;;;;;;30.35;17.23;;;;;;;11.06;100.00;97534.75;5134793;28;20046;-86
2022/12/22 13:34:43;;;;;;;27.30;14.88;;;;;;;11.06;100.00;97540.03;5098893;28;20047;-85
2022/12/22 13:37:23;;;;;;;30.25;15.35;;;;;;;11.02;100.00;97538.91;5102965;28;20024;-85
2022/12/22 13:40:13;;;;;;;25.65;14.80;;;;;;;11.09;100.00;97534.28;5114286;27;20472;-85
2022/12/22 13:42:53;;;;;;;30.88;15.77;;;;;;;11.08;100.00;97538.72;5100659;28;20032;-87
2022/12/22 13:45:25;;;;;;;28.58;15.90;;;;;;;11.02;100.00;97537.06;5124678;27;20041;-85
2022/12/22 13:47:51;;;;;;;31.27;17.52;;;;;;;10.96;100.00;97540.63;5127285;27;20031;-85
2022/12/22 13:50:27;;;;;;;41.88;21.23;;;;;;;10.82;100.00;97524.34;5136336;27;20055;-86
2022/12/22 13:52:55;;;;;;;42.15;21.35;;;;;;;10.86;100.00;97536.75;5088692;27;20591;-84
2022/12/22 13:55:27;;;;;;;46.22;24.27;;;;;;;10.84;100.00;97515.19;5105171;27;20073;-85
2022/12/22 13:57:54;;;;;;;41.83;22.63;;;;;;;10.81;100.00;97533.25;5123424;27;20043;-86
2022/12/22 14:00:25;;;;;;;42.88;23.27;;;;;;;10.80;100.00;97526.38;5099151;28;20024;-88
2022/12/22 14:02:53;;;;;;;43.60;22.20;;;;;;;10.66;100.00;97534.53;5117858;27;20039;-84
2022/12/22 14:05:20;;;;;;;43.38;22.35;;;;;;;10.57;100.00;97517.56;5110546;27;20050;-86
2022/12/22 14:08:04;;;;;;;41.92;22.42;;;;;;;10.78;100.00;97534.50;5102960;28;20119;-85
2022/12/22 14:10:37;;;;;;;47.53;23.20;;;;;;;10.69;100.00;97536.69;5125856;27;20088;-86
2022/12/22 14:13:13;;;;;;;46.97;23.25;;;;;;;10.63;100.00;97519.28;5107308;27;20051;-85
2022/12/22 14:15:38;;;;;;;41.15;21.55;;;;;;;10.66;100.00;97534.53;5118419;27;20030;-86
2022/12/22 14:18:04;;;;;;;39.83;21.17;;;;;;;10.46;100.00;97510.53;5127841;27;20118;-87
2022/12/22 14:20:37;;;;;;;43.67;23.02;;;;;;;10.55;100.00;97511.75;5115999;28;20496;-84
2022/12/22 14:23:07;;;;;;;52.33;26.17;;;;;;;10.69;100.00;97551.63;5116104;28;20063;-83
2022/12/22 14:25:38;;;;;;;42.97;22.05;;;;;;;10.75;100.00;97544.66;5125635;27;20027;-86
2022/12/22 14:28:10;;;;;;;46.22;23.98;;;;;;;10.69;100.00;97551.63;5098225;27;20502;-84
2022/12/22 14:30:43;;;;;;;50.08;26.33;;;;;;;10.62;100.00;97530.78;5103477;27;20118;-85
2022/12/22 14:33:27;;;;;;;48.58;27.73;;;;;;;10.73;100.00;97544.09;5120214;27;20028;-85
2022/12/22 14:36:22;;;;;;;70.38;27.15;;;;;;;10.48;100.00;97532.84;5115662;27;20027;-84
2022/12/22 14:38:56;;;;;;;42.85;23.95;;;;;;;10.60;100.00;97538.06;5082428;27;20074;-84
2022/12/22 14:44:13;;;;;;;81.70;28.83;;;;;;;10.21;100.00;97503.66;5128537;27;20373;-85
2022/12/22 14:46:39;;;;;;;54.75;28.23;;;;;;;10.22;100.00;97510.50;5106673;28;20031;-84
2022/12/22 14:49:15;;;;;;;63.72;27.50;;;;;;;10.25;100.00;97513.47;5099652;28;20389;-85
2022/12/22 14:51:41;;;;;;;55.75;27.60;;;;;;;10.38;100.00;97541.28;5123933;27;20027;-83
2022/12/22 14:54:19;;;;;;;62.38;29.02;;;;;;;10.32;100.00;97536.97;5108372;27;20033;-85
2022/12/22 14:56:49;;;;;;;67.15;28.60;;;;;;;10.24;100.00;97519.75;5126719;27;20043;-87
2022/12/22 14:59:26;;;;;;;51.10;26.48;;;;;;;10.30;100.00;97520.66;5088207;27;20039;-85
2022/12/22 15:02:20;;;;;;;87.63;28.17;;;;;;;10.21;100.00;97519.41;5108166;27;20035;-85
2022/12/22 15:04:46;;;;;;;47.65;25.33;;;;;;;10.26;100.00;97557.03;5109552;27;20046;-85
2022/12/22 15:07:18;;;;;;;73.80;27.45;;;;;;;10.33;100.00;97554.28;5102080;27;20038;-86
2022/12/22 15:09:44;;;;;;;43.30;22.98;;;;;;;10.09;100.00;97528.09;5121577;27;20035;-85
2022/12/22 15:12:13;;;;;;;46.30;24.05;;;;;;;10.21;100.00;97548.25;5105163;28;20038;-84
2022/12/22 15:14:39;;;;;;;45.25;24.00;;;;;;;10.18;100.00;97552.13;5090882;27;20040;-86